Time;durP1;ratioP1;P1;durP2;ratioP2;P2;SDS_P1;SDS_P2;PMS_P1;PMS_P2;Temp;Humidity;BMP_temperature;BMP_pressure;BME280_temperature;BME280_humidity;BME280_pressure;Samples;Min_cycle;Max_cycle;Signal;HPM_P1;HPM_P2
2022/07/19 00:00:20;;;;;;;5.00;2.60;;;;;;;;;;5089279;28;20042;-63
2022/07/19 00:02:46;;;;;;;6.15;2.88;;;;;;;;;;5096596;28;20430;-64
2022/07/19 00:05:12;;;;;;;5.65;2.83;;;;;;;;;;5101787;28;20507;-63
2022/07/19 00:07:39;;;;;;;6.32;2.90;;;;;;;;;;5100927;28;20043;-64
2022/07/19 00:10:06;;;;;;;7.60;2.95;;;;;;;;;;5092829;28;20027;-63
2022/07/19 00:12:32;;;;;;;5.45;2.75;;;;;;;;;;5097501;28;20040;-63
2022/07/19 00:14:58;;;;;;;7.65;2.97;;;;;;;;;;5100440;28;20032;-63
2022/07/19 00:17:23;;;;;;;7.03;3.22;;;;;;;;;;5074347;28;20028;-63
2022/07/19 00:19:49;;;;;;;7.53;3.25;;;;;;;;;;5111033;28;20042;-64
2022/07/19 00:22:14;;;;;;;5.18;2.85;;;;;;;;;;5087345;28;20043;-63
2022/07/19 00:24:39;;;;;;;10.68;3.42;;;;;;;;;;5111853;28;20043;-63
2022/07/19 00:27:05;;;;;;;7.95;3.75;;;;;;;;;;5101191;28;20057;-64
2022/07/19 00:29:30;;;;;;;7.05;3.63;;;;;;;;;;5102068;28;20032;-63
2022/07/19 00:31:56;;;;;;;5.45;3.22;;;;;;;;;;5090722;28;20036;-63
2022/07/19 00:34:21;;;;;;;9.43;3.78;;;;;;;;;;5090520;28;20111;-64
2022/07/19 00:36:46;;;;;;;7.97;3.67;;;;;;;;;;5077539;28;20031;-65
2022/07/19 00:39:12;;;;;;;6.85;3.80;;;;;;;;;;5090869;28;20032;-63
2022/07/19 00:41:42;;;;;;;6.15;3.65;;;;;;;;;;5100776;28;20032;-63
2022/07/19 00:44:09;;;;;;;8.05;3.55;;;;;;;;;;5108801;28;20492;-64
2022/07/19 00:46:35;;;;;;;8.43;3.42;;;;;;;;;;5109283;28;20039;-63
2022/07/19 00:49:02;;;;;;;8.63;3.63;;;;;;;;;;5072778;28;20321;-65
2022/07/19 00:51:28;;;;;;;7.25;3.63;;;;;;;;;;5100475;28;20445;-63
2022/07/19 00:53:55;;;;;;;7.68;3.38;;;;;;;;;;5112560;28;20027;-64
2022/07/19 00:56:21;;;;;;;14.40;3.50;;;;;;;;;;5095280;28;20131;-63
2022/07/19 00:58:49;;;;;;;6.40;3.30;;;;;;;;;;5091124;28;20062;-63
2022/07/19 01:01:14;;;;;;;5.82;3.33;;;;;;;;;;5100653;28;20034;-63
2022/07/19 01:03:40;;;;;;;9.02;3.42;;;;;;;;;;5110117;28;20058;-63
2022/07/19 01:06:08;;;;;;;8.05;3.42;;;;;;;;;;5105595;28;20119;-63
2022/07/19 01:08:35;;;;;;;5.47;3.05;;;;;;;;;;5103357;28;20465;-63
2022/07/19 01:11:06;;;;;;;9.38;3.75;;;;;;;;;;5093547;28;20461;-63
2022/07/19 01:13:31;;;;;;;;;;;;;;;;;;5094213;28;20032;-62
2022/07/19 01:15:57;;;;;;;6.80;3.60;;;;;;;;;;5092689;28;19995;-63
2022/07/19 01:18:23;;;;;;;5.43;3.42;;;;;;;;;;5092671;28;20036;-63
2022/07/19 01:20:48;;;;;;;7.57;3.60;;;;;;;;;;5082900;28;20043;-63
2022/07/19 01:23:13;;;;;;;7.22;3.60;;;;;;;;;;5092609;28;20391;-63
2022/07/19 01:25:39;;;;;;;8.15;3.63;;;;;;;;;;5094089;28;20451;-63
2022/07/19 01:28:06;;;;;;;8.38;3.85;;;;;;;;;;5107502;28;20551;-63
2022/07/19 01:30:32;;;;;;;8.27;3.67;;;;;;;;;;5089206;28;20051;-62
2022/07/19 01:32:58;;;;;;;8.32;3.85;;;;;;;;;;5092769;28;20071;-64
2022/07/19 01:35:24;;;;;;;6.90;3.53;;;;;;;;;;5112600;28;20127;-63
2022/07/19 01:37:50;;;;;;;10.00;3.90;;;;;;;;;;5098872;28;20070;-63
2022/07/19 01:40:17;;;;;;;8.75;3.63;;;;;;;;;;5093166;28;20048;-64
2022/07/19 01:42:43;;;;;;;6.70;3.60;;;;;;;;;;5092794;28;20099;-64
2022/07/19 01:45:09;;;;;;;7.13;3.70;;;;;;;;;;5093363;28;20119;-66
2022/07/19 01:47:36;;;;;;;7.25;3.78;;;;;;;;;;5095174;28;20051;-65
2022/07/19 01:50:03;;;;;;;9.50;3.83;;;;;;;;;;5094899;28;20336;-63
2022/07/19 01:52:29;;;;;;;7.13;3.72;;;;;;;;;;5082697;28;20027;-63
2022/07/19 01:54:54;;;;;;;6.97;3.75;;;;;;;;;;5107988;28;20380;-65
2022/07/19 01:57:19;;;;;;;6.53;3.88;;;;;;;;;;5094445;28;20036;-63
2022/07/19 01:59:45;;;;;;;7.20;3.60;;;;;;;;;;5092064;28;20032;-63
2022/07/19 02:02:10;;;;;;;8.88;3.90;;;;;;;;;;5093150;28;20380;-64
2022/07/19 02:04:36;;;;;;;7.32;3.83;;;;;;;;;;5093978;28;20377;-63
2022/07/19 02:07:02;;;;;;;7.93;4.00;;;;;;;;;;5095676;28;20031;-63
2022/07/19 02:09:27;;;;;;;8.95;4.93;;;;;;;;;;5093543;28;20058;-63
2022/07/19 02:11:52;;;;;;;11.18;5.13;;;;;;;;;;5095668;28;20031;-64
2022/07/19 02:14:18;;;;;;;7.65;4.78;;;;;;;;;;5109142;28;20030;-63
2022/07/19 02:16:43;;;;;;;14.07;5.00;;;;;;;;;;5093556;28;20415;-63
2022/07/19 02:19:10;;;;;;;8.05;4.80;;;;;;;;;;5091692;28;20039;-64
2022/07/19 02:21:36;;;;;;;7.22;4.32;;;;;;;;;;5109532;28;20066;-63
2022/07/19 02:24:03;;;;;;;7.45;4.60;;;;;;;;;;5104356;28;20028;-64
2022/07/19 02:26:28;;;;;;;11.85;4.68;;;;;;;;;;5093067;28;21287;-63
2022/07/19 02:28:54;;;;;;;8.30;4.60;;;;;;;;;;5113247;28;20436;-65
2022/07/19 02:31:20;;;;;;;6.82;4.30;;;;;;;;;;5097665;28;20523;-63
2022/07/19 02:33:45;;;;;;;7.50;4.43;;;;;;;;;;5099692;28;20443;-63
2022/07/19 02:36:11;;;;;;;8.48;4.30;;;;;;;;;;5091871;28;20089;-64
2022/07/19 02:38:36;;;;;;;7.43;4.40;;;;;;;;;;5095485;28;20400;-63
2022/07/19 02:41:02;;;;;;;7.30;4.60;;;;;;;;;;5112395;28;20452;-63
2022/07/19 02:43:27;;;;;;;7.30;4.20;;;;;;;;;;5091480;28;20047;-63
2022/07/19 02:45:53;;;;;;;8.35;4.45;;;;;;;;;;5092632;28;20036;-63
2022/07/19 02:48:18;;;;;;;9.70;4.85;;;;;;;;;;5091259;28;20036;-63
2022/07/19 02:50:44;;;;;;;7.45;4.30;;;;;;;;;;5097341;28;20502;-63
2022/07/19 02:53:10;;;;;;;10.15;4.45;;;;;;;;;;5112280;28;20031;-64
2022/07/19 02:55:36;;;;;;;7.65;4.22;;;;;;;;;;5107037;28;20097;-63
2022/07/19 02:58:02;;;;;;;7.28;4.32;;;;;;;;;;5109032;28;20118;-63
2022/07/19 03:00:28;;;;;;;6.53;4.22;;;;;;;;;;5107466;28;21579;-63
2022/07/19 03:02:53;;;;;;;8.88;4.63;;;;;;;;;;5091848;28;20035;-63
2022/07/19 03:05:19;;;;;;;8.00;4.22;;;;;;;;;;5092367;28;20642;-63
2022/07/19 03:07:44;;;;;;;9.20;4.25;;;;;;;;;;5092889;28;20407;-63
2022/07/19 03:10:09;;;;;;;8.38;4.40;;;;;;;;;;5090426;28;20063;-66
2022/07/19 03:12:35;;;;;;;5.72;3.90;;;;;;;;;;5091930;28;20107;-63
2022/07/19 03:15:01;;;;;;;6.45;4.05;;;;;;;;;;5090987;28;20039;-63
2022/07/19 03:17:26;;;;;;;12.70;4.05;;;;;;;;;;5089671;28;20384;-63
2022/07/19 03:19:52;;;;;;;8.48;4.28;;;;;;;;;;5100353;28;20058;-63
2022/07/19 03:22:17;;;;;;;7.57;4.30;;;;;;;;;;5091294;28;20088;-63
2022/07/19 03:24:43;;;;;;;9.00;4.15;;;;;;;;;;5099240;28;20028;-63
2022/07/19 03:27:08;;;;;;;8.18;4.30;;;;;;;;;;5095238;28;20048;-63
2022/07/19 03:29:34;;;;;;;6.80;4.30;;;;;;;;;;5099071;28;20490;-63
2022/07/19 03:31:59;;;;;;;6.85;4.22;;;;;;;;;;5105335;28;20032;-65
2022/07/19 03:34:25;;;;;;;7.97;4.55;;;;;;;;;;5097549;28;20024;-63
2022/07/19 03:36:51;;;;;;;7.90;4.18;;;;;;;;;;5091952;28;20099;-63
2022/07/19 03:39:17;;;;;;;11.32;4.40;;;;;;;;;;5094472;28;20516;-63
2022/07/19 03:41:42;;;;;;;8.60;4.45;;;;;;;;;;5091047;28;20050;-62
2022/07/19 03:44:07;;;;;;;10.50;4.30;;;;;;;;;;5073223;28;20023;-63
2022/07/19 03:46:33;;;;;;;8.48;4.20;;;;;;;;;;5095540;28;20032;-63
2022/07/19 03:48:58;;;;;;;7.03;4.60;;;;;;;;;;5091552;28;20487;-64
2022/07/19 03:51:24;;;;;;;8.27;4.80;;;;;;;;;;5090992;28;20128;-62
2022/07/19 03:53:50;;;;;;;10.13;4.97;;;;;;;;;;5090896;28;20032;-62
2022/07/19 03:56:17;;;;;;;10.88;4.65;;;;;;;;;;5090955;28;20055;-62
2022/07/19 03:58:43;;;;;;;10.88;4.80;;;;;;;;;;5105998;28;20115;-62
2022/07/19 04:01:08;;;;;;;8.77;4.85;;;;;;;;;;5111197;28;20103;-63
2022/07/19 04:03:37;;;;;;;8.48;4.90;;;;;;;;;;5100202;28;20032;-62
2022/07/19 04:06:04;;;;;;;10.95;5.07;;;;;;;;;;5100319;28;20043;-64
2022/07/19 04:08:30;;;;;;;8.77;4.88;;;;;;;;;;5100682;28;20028;-63
2022/07/19 04:10:55;;;;;;;10.77;4.90;;;;;;;;;;5091791;28;20028;-63
2022/07/19 04:13:21;;;;;;;8.70;4.82;;;;;;;;;;5071923;28;20067;-63
2022/07/19 04:15:46;;;;;;;12.32;4.88;;;;;;;;;;5091200;28;20036;-63
2022/07/19 04:18:11;;;;;;;9.40;4.40;;;;;;;;;;5101413;28;20047;-63
2022/07/19 04:20:37;;;;;;;9.63;4.80;;;;;;;;;;5109549;28;20035;-63
2022/07/19 04:23:02;;;;;;;12.23;4.75;;;;;;;;;;5107026;28;20031;-64
2022/07/19 04:25:28;;;;;;;10.05;4.72;;;;;;;;;;5073397;28;20464;-63
2022/07/19 04:27:54;;;;;;;11.93;5.18;;;;;;;;;;5091525;28;20028;-63
2022/07/19 04:30:19;;;;;;;8.52;4.25;;;;;;;;;;5102902;28;20035;-63
2022/07/19 04:32:45;;;;;;;9.70;4.72;;;;;;;;;;5095232;28;20396;-64
2022/07/19 04:35:10;;;;;;;7.35;4.57;;;;;;;;;;5091460;28;20062;-63
2022/07/19 04:37:35;;;;;;;6.80;4.47;;;;;;;;;;5076377;28;20073;-64
2022/07/19 04:40:01;;;;;;;9.98;4.57;;;;;;;;;;5094690;28;20162;-64
2022/07/19 04:42:26;;;;;;;10.02;4.70;;;;;;;;;;5102804;28;20059;-63
2022/07/19 04:44:52;;;;;;;9.55;4.78;;;;;;;;;;5111967;28;20031;-69
2022/07/19 04:47:17;;;;;;;7.88;5.10;;;;;;;;;;5099572;28;20035;-63
2022/07/19 04:49:43;;;;;;;9.35;5.10;;;;;;;;;;5109515;28;20028;-63
2022/07/19 04:52:08;;;;;;;11.50;4.93;;;;;;;;;;5104477;28;20045;-65
2022/07/19 04:54:33;;;;;;;8.50;4.60;;;;;;;;;;5113200;28;20104;-64
2022/07/19 04:56:59;;;;;;;10.75;5.15;;;;;;;;;;5115281;28;20035;-65
2022/07/19 04:59:24;;;;;;;10.93;4.85;;;;;;;;;;5112969;28;20030;-66
2022/07/19 05:01:50;;;;;;;14.55;5.20;;;;;;;;;;5101065;28;20038;-64
2022/07/19 05:04:15;;;;;;;9.13;4.78;;;;;;;;;;5095913;28;20118;-64
2022/07/19 05:06:42;;;;;;;10.63;5.60;;;;;;;;;;5094596;28;20040;-63
2022/07/19 05:09:08;;;;;;;10.40;5.30;;;;;;;;;;5095068;28;20503;-63
2022/07/19 05:11:34;;;;;;;10.68;5.25;;;;;;;;;;5113350;28;20055;-64
2022/07/19 05:13:59;;;;;;;12.85;5.20;;;;;;;;;;5102518;28;20040;-63
2022/07/19 05:16:24;;;;;;;12.73;5.03;;;;;;;;;;5105625;27;20024;-63
2022/07/19 05:18:50;;;;;;;11.18;5.00;;;;;;;;;;5096920;28;20059;-63
2022/07/19 05:21:15;;;;;;;12.85;5.43;;;;;;;;;;5109277;27;20024;-67
2022/07/19 05:23:41;;;;;;;9.65;5.10;;;;;;;;;;5113941;28;20096;-63
2022/07/19 05:26:07;;;;;;;11.10;5.32;;;;;;;;;;5098487;28;20036;-64
2022/07/19 05:28:32;;;;;;;9.20;5.20;;;;;;;;;;5106084;28;20102;-62
2022/07/19 05:30:58;;;;;;;8.05;5.03;;;;;;;;;;5094259;28;20073;-63
2022/07/19 05:33:23;;;;;;;10.02;5.32;;;;;;;;;;5099922;27;20620;-64
2022/07/19 05:35:49;;;;;;;10.02;5.00;;;;;;;;;;5096209;28;20034;-64
2022/07/19 05:38:14;;;;;;;9.45;5.03;;;;;;;;;;5106968;28;20062;-65
2022/07/19 05:40:39;;;;;;;13.32;5.03;;;;;;;;;;5093224;28;20024;-65
2022/07/19 05:43:05;;;;;;;11.32;5.40;;;;;;;;;;5095920;28;20028;-68
2022/07/19 05:45:30;;;;;;;8.65;5.30;;;;;;;;;;5113608;28;20039;-64
2022/07/19 05:47:55;;;;;;;10.73;4.93;;;;;;;;;;5109649;28;20357;-65
2022/07/19 05:50:21;;;;;;;12.50;5.03;;;;;;;;;;5111033;28;20449;-66
2022/07/19 05:52:46;;;;;;;10.48;4.93;;;;;;;;;;5112031;28;20032;-64
2022/07/19 05:55:12;;;;;;;9.18;5.05;;;;;;;;;;5105621;28;20071;-65
2022/07/19 05:57:37;;;;;;;11.63;4.85;;;;;;;;;;5112508;28;20459;-65
2022/07/19 06:00:04;;;;;;;8.23;4.13;;;;;;;;;;5113504;28;20414;-66
2022/07/19 06:02:29;;;;;;;9.07;4.45;;;;;;;;;;5093432;28;20092;-65
2022/07/19 06:04:55;;;;;;;8.25;4.28;;;;;;;;;;5114256;28;20027;-66
2022/07/19 06:07:20;;;;;;;10.55;4.28;;;;;;;;;;5111339;28;20032;-65
2022/07/19 06:09:46;;;;;;;9.93;4.75;;;;;;;;;;5113786;28;20081;-64
2022/07/19 06:12:11;;;;;;;11.60;4.88;;;;;;;;;;5101532;28;20039;-65
2022/07/19 06:14:36;;;;;;;9.50;4.57;;;;;;;;;;5098007;28;20155;-63
2022/07/19 06:17:02;;;;;;;10.82;4.50;;;;;;;;;;5090680;28;20043;-63
2022/07/19 06:19:27;;;;;;;10.38;4.50;;;;;;;;;;5111616;28;20047;-64
2022/07/19 06:21:53;;;;;;;9.73;4.45;;;;;;;;;;5110943;28;20433;-66
2022/07/19 06:24:19;;;;;;;9.10;4.15;;;;;;;;;;5092160;28;20361;-64
2022/07/19 06:26:44;;;;;;;10.50;4.18;;;;;;;;;;5093567;28;20031;-64
2022/07/19 06:29:10;;;;;;;11.25;4.32;;;;;;;;;;5108670;28;20376;-66
2022/07/19 06:31:35;;;;;;;9.35;4.50;;;;;;;;;;5113411;28;20478;-63
2022/07/19 06:34:01;;;;;;;8.63;4.20;;;;;;;;;;5105220;28;20023;-61
2022/07/19 06:36:27;;;;;;;9.27;4.10;;;;;;;;;;5094355;28;20605;-62
2022/07/19 06:38:52;;;;;;;9.95;4.13;;;;;;;;;;5111961;28;20039;-61
2022/07/19 06:41:18;;;;;;;8.82;4.43;;;;;;;;;;5103453;28;20024;-62
2022/07/19 06:43:44;;;;;;;8.93;4.10;;;;;;;;;;5107866;28;20024;-62
2022/07/19 06:46:10;;;;;;;9.15;4.30;;;;;;;;;;5104540;28;20027;-64
2022/07/19 06:48:36;;;;;;;9.13;4.07;;;;;;;;;;5094280;27;20103;-62
2022/07/19 06:51:01;;;;;;;10.95;4.05;;;;;;;;;;5102585;28;20377;-62
2022/07/19 06:53:27;;;;;;;10.25;4.20;;;;;;;;;;5107524;28;20497;-64
2022/07/19 06:55:52;;;;;;;12.10;4.13;;;;;;;;;;5067776;28;20048;-63
2022/07/19 06:58:18;;;;;;;7.03;3.28;;;;;;;;;;5099330;28;20038;-63
2022/07/19 07:00:43;;;;;;;7.88;3.45;;;;;;;;;;5100599;28;20080;-64
2022/07/19 07:03:09;;;;;;;10.85;3.45;;;;;;;;;;5098062;28;20116;-65
2022/07/19 07:05:35;;;;;;;11.23;3.28;;;;;;;;;;5106855;28;20517;-61
2022/07/19 07:08:01;;;;;;;9.25;3.17;;;;;;;;;;5107109;28;20405;-62
2022/07/19 07:10:27;;;;;;;8.02;3.10;;;;;;;;;;5111486;28;20080;-63
2022/07/19 07:12:52;;;;;;;7.78;3.63;;;;;;;;;;5105308;28;20031;-63
2022/07/19 07:15:17;;;;;;;9.18;3.20;;;;;;;;;;5110452;28;20098;-62
2022/07/19 07:17:43;;;;;;;12.60;3.45;;;;;;;;;;5073078;28;20081;-65
2022/07/19 07:20:09;;;;;;;7.88;2.95;;;;;;;;;;5091540;28;20032;-67
2022/07/19 07:22:35;;;;;;;10.40;2.97;;;;;;;;;;5110632;28;20452;-62
2022/07/19 07:25:01;;;;;;;6.78;3.08;;;;;;;;;;5097248;28;20051;-63
2022/07/19 07:27:26;;;;;;;7.43;2.97;;;;;;;;;;5097482;28;20041;-64
2022/07/19 07:29:52;;;;;;;8.18;3.00;;;;;;;;;;5101009;28;20036;-62
2022/07/19 07:32:18;;;;;;;6.93;3.10;;;;;;;;;;5089915;27;20020;-64
2022/07/19 07:34:44;;;;;;;8.13;3.25;;;;;;;;;;5100813;28;20096;-64
2022/07/19 07:37:10;;;;;;;11.25;3.28;;;;;;;;;;5081920;28;20032;-67
2022/07/19 07:39:36;;;;;;;6.43;2.83;;;;;;;;;;5111863;28;20035;-65
2022/07/19 07:42:03;;;;;;;8.40;3.40;;;;;;;;;;5090115;28;20040;-64
2022/07/19 07:44:29;;;;;;;7.00;3.25;;;;;;;;;;5091347;28;20036;-64
2022/07/19 07:46:54;;;;;;;12.40;3.20;;;;;;;;;;5092636;28;20024;-63
2022/07/19 07:49:19;;;;;;;8.25;3.05;;;;;;;;;;5105513;28;20032;-65
2022/07/19 07:51:45;;;;;;;10.82;3.17;;;;;;;;;;5092912;28;20058;-65
2022/07/19 07:54:10;;;;;;;9.85;3.55;;;;;;;;;;5073894;28;20064;-65
2022/07/19 07:56:36;;;;;;;12.73;3.33;;;;;;;;;;5092268;28;20052;-64
2022/07/19 07:59:01;;;;;;;10.38;3.30;;;;;;;;;;5101064;28;20024;-65
2022/07/19 08:01:26;;;;;;;4.80;2.80;;;;;;;;;;5111179;28;20031;-64
2022/07/19 08:03:52;;;;;;;13.80;3.50;;;;;;;;;;5088517;28;20043;-64
2022/07/19 08:06:17;;;;;;;5.55;3.00;;;;;;;;;;5108723;28;20127;-65
2022/07/19 08:08:43;;;;;;;7.97;3.13;;;;;;;;;;5109998;28;20460;-65
2022/07/19 08:11:09;;;;;;;9.55;3.40;;;;;;;;;;5091649;28;20028;-65
2022/07/19 08:13:34;;;;;;;9.45;3.30;;;;;;;;;;5076273;28;20028;-67
2022/07/19 08:16:00;;;;;;;7.85;3.25;;;;;;;;;;5100550;28;20035;-64
2022/07/19 08:18:25;;;;;;;13.80;3.70;;;;;;;;;;5093756;28;20465;-63
2022/07/19 08:20:51;;;;;;;8.00;3.20;;;;;;;;;;5111561;27;20127;-62
2022/07/19 08:23:16;;;;;;;9.93;3.42;;;;;;;;;;5094838;28;20475;-65
2022/07/19 08:25:42;;;;;;;10.40;3.28;;;;;;;;;;5097980;27;20068;-63
2022/07/19 08:28:07;;;;;;;10.93;3.50;;;;;;;;;;5102234;28;20043;-63
2022/07/19 08:30:33;;;;;;;7.32;3.30;;;;;;;;;;5094611;28;20024;-63
2022/07/19 08:32:59;;;;;;;7.55;3.20;;;;;;;;;;5107565;28;20481;-66
2022/07/19 08:35:24;;;;;;;11.45;3.88;;;;;;;;;;5095520;28;20059;-65
2022/07/19 08:37:50;;;;;;;9.98;3.40;;;;;;;;;;5111072;27;20071;-65
2022/07/19 08:40:15;;;;;;;8.35;3.22;;;;;;;;;;5105713;28;20023;-67
2022/07/19 08:42:42;;;;;;;7.68;3.50;;;;;;;;;;5114885;28;20107;-65
2022/07/19 08:45:09;;;;;;;9.75;3.30;;;;;;;;;;5114661;28;20081;-64
2022/07/19 08:47:36;;;;;;;12.52;3.60;;;;;;;;;;5114800;28;20028;-63
2022/07/19 08:50:05;;;;;;;13.35;3.95;;;;;;;;;;5102581;28;20387;-65
2022/07/19 08:52:34;;;;;;;8.45;3.17;;;;;;;;;;5101274;28;20039;-64
2022/07/19 08:55:00;;;;;;;9.45;3.30;;;;;;;;;;5099128;28;20048;-64
2022/07/19 09:00:11;;;;;;;5.57;2.55;;;;;;;;;;5103927;28;20512;-65
2022/07/19 09:02:36;;;;;;;7.82;3.20;;;;;;;;;;5113941;28;20047;-63
2022/07/19 09:05:10;;;;;;;5.97;3.05;;;;;;;;;;5109580;28;20070;-65
2022/07/19 09:07:39;;;;;;;7.35;2.90;;;;;;;;;;5079237;28;20024;-63
2022/07/19 09:10:20;;;;;;;9.27;3.10;;;;;;;;;;5107375;28;20426;-63
2022/07/19 09:13:08;;;;;;;9.40;2.97;;;;;;;;;;5115274;28;20019;-64
2022/07/19 09:15:50;;;;;;;5.13;2.70;;;;;;;;;;5092437;28;20039;-66
2022/07/19 09:18:21;;;;;;;9.30;3.10;;;;;;;;;;5113362;28;20043;-68
2022/07/19 09:20:53;;;;;;;;;;;;;;;;;;5079674;28;20170;-64
2022/07/19 09:23:19;;;;;;;8.30;3.00;;;;;;;;;;5094288;28;20003;-66
2022/07/19 09:25:51;;;;;;;4.20;2.92;;;;;;;;;;5094394;28;20028;-63
2022/07/19 09:28:19;;;;;;;9.45;2.75;;;;;;;;;;5096105;28;20035;-66
2022/07/19 09:30:47;;;;;;;8.52;2.80;;;;;;;;;;5109422;28;20031;-65
2022/07/19 09:33:18;;;;;;;9.02;3.17;;;;;;;;;;5099192;28;20101;-66
2022/07/19 09:35:46;;;;;;;9.07;2.80;;;;;;;;;;5103038;28;20036;-65
2022/07/19 09:38:28;;;;;;;6.20;2.90;;;;;;;;;;5102986;28;20047;-64
2022/07/19 09:41:08;;;;;;;6.63;2.70;;;;;;;;;;5109532;28;20024;-65
2022/07/19 09:43:58;;;;;;;5.95;2.92;;;;;;;;;;5111158;28;20069;-63
2022/07/19 09:46:36;;;;;;;13.98;3.10;;;;;;;;;;5096576;28;20035;-63
2022/07/19 09:49:05;;;;;;;6.03;2.80;;;;;;;;;;5101398;28;20088;-66
2022/07/19 09:51:33;;;;;;;7.57;2.83;;;;;;;;;;5074855;28;20024;-61
2022/07/19 09:53:58;;;;;;;4.80;2.55;;;;;;;;;;5111071;28;20035;-64
2022/07/19 09:56:28;;;;;;;7.20;2.50;;;;;;;;;;5104241;28;20449;-66
2022/07/19 09:58:58;;;;;;;6.93;2.40;;;;;;;;;;5105595;28;20165;-66
2022/07/19 10:01:23;;;;;;;;;;;;;;;;;;5093657;28;20047;-64
2022/07/19 10:03:51;;;;;;;5.47;2.42;;;;;;;;;;5099134;27;19916;-65
2022/07/19 10:06:17;;;;;;;4.47;2.65;;;;;;;;;;5124025;27;20103;-66
2022/07/19 10:08:43;;;;;;;4.50;2.60;;;;;;;;;;5113784;27;20093;-65
2022/07/19 10:11:08;;;;;;;7.07;2.70;;;;;;;;;;5101154;27;20539;-66
2022/07/19 10:13:35;;;;;;;9.63;2.47;;;;;;;;;;5102037;27;20032;-68
2022/07/19 10:16:03;;;;;;;2.95;2.15;;;;;;;;;;5093500;28;20028;-67
2022/07/19 10:18:37;;;;;;;7.13;2.40;;;;;;;;;;5091659;28;20116;-67
2022/07/19 10:21:03;;;;;;;5.72;2.65;;;;;;;;;;5093569;28;20031;-66
2022/07/19 10:23:31;;;;;;;7.00;2.30;;;;;;;;;;5108136;28;20124;-65
2022/07/19 10:25:56;;;;;;;3.92;2.10;;;;;;;;;;5101239;28;20507;-66
2022/07/19 10:28:29;;;;;;;5.15;2.38;;;;;;;;;;5093937;28;20059;-67
2022/07/19 10:30:54;;;;;;;5.82;2.53;;;;;;;;;;5104579;28;20035;-66
2022/07/19 10:33:36;;;;;;;5.20;2.47;;;;;;;;;;5111411;28;20064;-66
2022/07/19 10:36:32;;;;;;;5.95;2.55;;;;;;;;;;5078919;28;20127;-65
2022/07/19 10:39:20;;;;;;;8.77;2.53;;;;;;;;;;5092991;28;20039;-67
2022/07/19 10:42:14;;;;;;;5.40;2.50;;;;;;;;;;5109918;28;20024;-66
2022/07/19 10:44:54;;;;;;;6.68;2.30;;;;;;;;;;5101112;28;20042;-64
2022/07/19 10:47:20;;;;;;;5.97;2.50;;;;;;;;;;5092372;28;20074;-69
2022/07/19 10:49:47;;;;;;;6.28;2.33;;;;;;;;;;5072330;28;20028;-66
2022/07/19 10:52:28;;;;;;;7.28;2.50;;;;;;;;;;5096282;28;20031;-69
2022/07/19 10:55:19;;;;;;;8.05;2.30;;;;;;;;;;5103135;27;20052;-68
2022/07/19 10:57:48;;;;;;;4.55;2.33;;;;;;;;;;5092427;28;20077;-69
2022/07/19 11:00:28;;;;;;;6.35;2.35;;;;;;;;;;5096954;28;20063;-68
2022/07/19 11:03:25;;;;;;;5.30;2.38;;;;;;;;;;5092885;28;20032;-66
2022/07/19 11:05:52;;;;;;;8.02;2.38;;;;;;;;;;5092499;28;20036;-67
2022/07/19 11:08:18;;;;;;;5.03;2.33;;;;;;;;;;5097024;28;20039;-66
2022/07/19 11:10:45;;;;;;;3.80;2.00;;;;;;;;;;5105651;28;20036;-64
2022/07/19 11:13:15;;;;;;;4.05;2.10;;;;;;;;;;5092555;28;20080;-67
2022/07/19 11:15:41;;;;;;;9.27;2.20;;;;;;;;;;5094376;28;20459;-67
2022/07/19 11:18:08;;;;;;;6.32;2.30;;;;;;;;;;5093533;28;20512;-66
2022/07/19 11:20:35;;;;;;;5.55;2.20;;;;;;;;;;5077184;28;20042;-67
2022/07/19 11:23:03;;;;;;;3.53;2.20;;;;;;;;;;5092356;28;20028;-68
2022/07/19 11:25:32;;;;;;;9.23;2.30;;;;;;;;;;5100756;28;20375;-67
2022/07/19 11:27:59;;;;;;;6.40;2.30;;;;;;;;;;5109562;28;20456;-68
2022/07/19 11:30:26;;;;;;;7.93;2.40;;;;;;;;;;5095911;28;20036;-66
2022/07/19 11:32:57;;;;;;;4.82;2.20;;;;;;;;;;5100008;28;20032;-68
2022/07/19 11:35:22;;;;;;;6.90;2.47;;;;;;;;;;5111134;28;20112;-66
2022/07/19 11:37:48;;;;;;;5.53;2.30;;;;;;;;;;5110133;28;20455;-68
2022/07/19 11:40:13;;;;;;;2.97;1.98;;;;;;;;;;5093934;28;20523;-67
2022/07/19 11:42:41;;;;;;;7.60;2.42;;;;;;;;;;5090774;28;20622;-67
2022/07/19 11:45:08;;;;;;;6.85;2.25;;;;;;;;;;5106028;27;20055;-67
2022/07/19 11:47:34;;;;;;;5.28;2.40;;;;;;;;;;5091993;28;20404;-66
2022/07/19 11:50:07;;;;;;;3.83;2.20;;;;;;;;;;5104048;28;20040;-66
2022/07/19 11:52:50;;;;;;;9.10;2.40;;;;;;;;;;5110985;28;20027;-66
2022/07/19 11:55:18;;;;;;;5.30;2.38;;;;;;;;;;5101594;28;20035;-67
2022/07/19 11:57:46;;;;;;;6.07;2.42;;;;;;;;;;5112142;28;20093;-68
2022/07/19 12:00:13;;;;;;;5.22;2.10;;;;;;;;;;5110723;28;20047;-68
2022/07/19 12:03:00;;;;;;;6.28;2.40;;;;;;;;;;5076375;28;20036;-66
2022/07/19 12:05:26;;;;;;;6.10;2.33;;;;;;;;;;5091810;28;20111;-67
2022/07/19 12:07:54;;;;;;;5.35;2.33;;;;;;;;;;5095940;28;20123;-67
2022/07/19 12:10:43;;;;;;;5.10;2.30;;;;;;;;;;5073008;28;20456;-66
2022/07/19 12:13:10;;;;;;;;;;;;;;;;;;5092510;28;20031;-66
2022/07/19 12:15:53;;;;;;;6.15;2.10;;;;;;;;;;5093407;28;19967;-67
2022/07/19 12:18:22;;;;;;;8.05;2.67;;;;;;;;;;5111481;28;20036;-67
2022/07/19 12:21:18;;;;;;;4.90;2.30;;;;;;;;;;5099739;28;20032;-66
2022/07/19 12:24:14;;;;;;;7.47;2.60;;;;;;;;;;5091046;28;20032;-67
2022/07/19 12:27:05;;;;;;;3.88;2.13;;;;;;;;;;5071453;28;20599;-66
2022/07/19 12:29:47;;;;;;;6.13;2.40;;;;;;;;;;5089996;28;20071;-65
2022/07/19 12:32:32;;;;;;;5.78;2.22;;;;;;;;;;5105727;28;20036;-68
2022/07/19 12:34:59;;;;;;;3.83;2.03;;;;;;;;;;5092742;28;20042;-67
2022/07/19 12:37:40;;;;;;;3.28;2.10;;;;;;;;;;5103748;28;20039;-67
2022/07/19 12:40:10;;;;;;;6.93;2.05;;;;;;;;;;5094480;28;20039;-68
2022/07/19 12:42:42;;;;;;;6.57;2.35;;;;;;;;;;5102878;28;20051;-66
2022/07/19 12:45:13;;;;;;;3.88;2.10;;;;;;;;;;5111389;28;20036;-66
2022/07/19 12:47:39;;;;;;;3.20;2.10;;;;;;;;;;5099565;28;20660;-65
2022/07/19 12:50:05;;;;;;;6.43;2.22;;;;;;;;;;5090979;28;20123;-67
2022/07/19 12:52:31;;;;;;;5.00;2.38;;;;;;;;;;5110446;28;20084;-64
2022/07/19 12:54:56;;;;;;;4.43;2.00;;;;;;;;;;5108169;28;20434;-68
2022/07/19 12:57:21;;;;;;;6.28;2.20;;;;;;;;;;5091844;28;20063;-66
2022/07/19 12:59:47;;;;;;;5.15;2.20;;;;;;;;;;5093168;28;20070;-66
2022/07/19 13:02:20;;;;;;;4.03;1.95;;;;;;;;;;5112723;28;20383;-65
2022/07/19 13:04:46;;;;;;;6.38;2.17;;;;;;;;;;5114007;28;20028;-67
2022/07/19 13:07:12;;;;;;;8.73;2.20;;;;;;;;;;5114855;28;20045;-67
2022/07/19 13:09:39;;;;;;;8.35;2.42;;;;;;;;;;5114132;28;20031;-68
2022/07/19 13:12:07;;;;;;;4.30;2.25;;;;;;;;;;5097357;28;20035;-65
2022/07/19 13:14:34;;;;;;;5.65;2.03;;;;;;;;;;5089165;28;20412;-66
2022/07/19 13:17:00;;;;;;;6.90;2.17;;;;;;;;;;5115064;28;20110;-65
2022/07/19 13:19:26;;;;;;;5.68;2.20;;;;;;;;;;5100061;28;20024;-66
2022/07/19 13:21:52;;;;;;;3.35;2.08;;;;;;;;;;5075796;28;20048;-66
2022/07/19 13:24:18;;;;;;;4.78;2.00;;;;;;;;;;5106406;28;20048;-65
2022/07/19 13:26:43;;;;;;;4.65;2.13;;;;;;;;;;5085918;28;20097;-65
2022/07/19 13:29:09;;;;;;;3.80;1.95;;;;;;;;;;5100032;28;20031;-66
2022/07/19 13:31:35;;;;;;;6.55;2.25;;;;;;;;;;5113593;27;20067;-67
2022/07/19 13:34:00;;;;;;;4.60;2.30;;;;;;;;;;5094743;28;20057;-66
2022/07/19 13:36:26;;;;;;;4.90;2.25;;;;;;;;;;5111241;28;20387;-67
2022/07/19 13:38:51;;;;;;;9.68;2.13;;;;;;;;;;5113792;28;20058;-66
2022/07/19 13:41:17;;;;;;;6.05;2.50;;;;;;;;;;5104945;28;20024;-65
2022/07/19 13:43:44;;;;;;;3.92;2.17;;;;;;;;;;5113441;28;20027;-65
2022/07/19 13:46:11;;;;;;;5.32;2.10;;;;;;;;;;5109752;28;20032;-64
2022/07/19 13:48:36;;;;;;;5.70;2.22;;;;;;;;;;5103904;28;20114;-65
2022/07/19 13:51:01;;;;;;;7.47;2.25;;;;;;;;;;5106938;28;20487;-66
2022/07/19 13:53:27;;;;;;;6.72;2.20;;;;;;;;;;5076075;28;20032;-66
2022/07/19 13:55:52;;;;;;;4.22;2.10;;;;;;;;;;5094073;28;20044;-65
2022/07/19 13:58:18;;;;;;;3.67;2.15;;;;;;;;;;5094497;28;20042;-65
2022/07/19 14:00:46;;;;;;;6.45;2.10;;;;;;;;;;5092992;28;20383;-66
2022/07/19 14:03:16;;;;;;;4.33;2.00;;;;;;;;;;5114011;28;20063;-67
2022/07/19 14:05:46;;;;;;;5.38;1.83;;;;;;;;;;5111463;28;20071;-66
2022/07/19 14:08:12;;;;;;;4.93;2.28;;;;;;;;;;5093778;28;20435;-66
2022/07/19 14:10:38;;;;;;;6.43;2.10;;;;;;;;;;5093431;28;20097;-65
2022/07/19 14:13:04;;;;;;;5.47;2.10;;;;;;;;;;5104226;28;20065;-66
2022/07/19 14:15:30;;;;;;;5.22;2.28;;;;;;;;;;5111491;28;20048;-67
2022/07/19 14:17:56;;;;;;;4.65;2.17;;;;;;;;;;5111402;28;20076;-64
2022/07/19 14:20:22;;;;;;;7.53;2.13;;;;;;;;;;5075169;28;20425;-67
2022/07/19 14:22:47;;;;;;;4.93;2.00;;;;;;;;;;5113711;28;20110;-68
2022/07/19 14:25:13;;;;;;;5.45;2.05;;;;;;;;;;5112374;28;20028;-64
2022/07/19 14:27:38;;;;;;;4.43;2.17;;;;;;;;;;5093717;28;20225;-66
2022/07/19 14:30:04;;;;;;;4.35;2.20;;;;;;;;;;5093675;28;20024;-66
2022/07/19 14:32:29;;;;;;;5.07;2.80;;;;;;;;;;5077660;28;20034;-67
2022/07/19 14:34:55;;;;;;;4.30;2.80;;;;;;;;;;5097245;28;20027;-67
2022/07/19 14:37:20;;;;;;;6.55;2.30;;;;;;;;;;5109789;28;20114;-68
2022/07/19 14:39:45;;;;;;;5.85;2.10;;;;;;;;;;5093085;28;20039;-65
2022/07/19 14:42:11;;;;;;;4.78;2.10;;;;;;;;;;5074694;28;20064;-66
2022/07/19 14:44:36;;;;;;;7.15;2.13;;;;;;;;;;5093618;28;20048;-65